Maltersville, Indiana
Current Conditions -  °F | °C
As of 10:15 AM on Wednesday 28 Jan 2015 (Local Time) from KHNB Reporting Station
Clear Clear  
Wind Chill: 23°   Ceiling: Unl
Heat Index: 30°   Visibility: 10mi
Dew Point: 18°   Wind: 7mph
Humidity: 60%   Direction: 150°SSE
Pressure: 30.36"   Gusts: NA
Location:  38.3038°N, 86.9615°W
Report Text: KHNB 281615Z AUTO 15006KT 10SM CLR M01/M08 A3036 RMK AO1
Loading
Personal Weather Stations






























Interactive Weather Map New forecast layout! Learn more

10-Day Weather Forecast

Advertisements
Track Severe Weather on mobile